This is the latest recevied weather packets stored in our database for station/object E7HQ-1. If no packets are shown the sender has not sent any weather packets the latest 10 day(s).
| Time | Temp. | Humidity | Pressure | Rain* | Wind** | Luminosity | Snow |
|---|---|---|---|---|---|---|---|
| 1777793331 | 17.22° C | 34% | 1030 hPa | - | - | - | - |
| 1777792430 | 16.67° C | 35% | 1030.1 hPa | - | - | - | - |
| 1777791530 | 16.11° C | 37% | 1030.1 hPa | - | - | - | - |
| 1777790630 | 15.56° C | 39% | 1030 hPa | - | - | - | - |
| 1777789730 | 14.44° C | 42% | 1030 hPa | - | - | - | - |
| 1777788829 | 13.89° C | 45% | 1030 hPa | - | - | - | - |
| 1777787929 | 13.89° C | 47% | 1029.9 hPa | - | - | - | - |
| 1777787029 | 12.22° C | 51% | 1030 hPa | - | - | - | - |
| 1777786135 | 11.67° C | 51% | 1029.9 hPa | - | - | - | - |
| 1777785235 | 11.67° C | 52% | 1029.9 hPa | - | - | - | - |
| 1777784335 | 11.11° C | 53% | 1029.9 hPa | - | - | - | - |
| 1777783435 | 11.11° C | 53% | 1029.8 hPa | - | - | - | - |
| 1777782535 | 11.11° C | 53% | 1029.8 hPa | - | - | - | - |
| 1777781634 | 10.56° C | 52% | 1029.8 hPa | - | - | - | - |
| 1777780734 | 10.56° C | 52% | 1029.7 hPa | - | - | - | - |
| 1777779834 | 10.56° C | 52% | 1029.7 hPa | - | - | - | - |
| 1777778934 | 10.56° C | 51% | 1029.6 hPa | - | - | - | - |
| 1777778034 | 10° C | 53% | 1029.7 hPa | - | - | - | - |
| 1777777133 | 10.56° C | 53% | 1029.7 hPa | - | - | - | - |
| 1777776233 | 10.56° C | 53% | 1029.7 hPa | - | - | - | - |
| 1777775333 | 10.56° C | 53% | 1029.7 hPa | - | - | - | - |
| 1777774433 | 10.56° C | 53% | 1029.7 hPa | - | - | - | - |
| 1777773532 | 10.56° C | 53% | 1029.7 hPa | - | - | - | - |
| 1777772632 | 10.56° C | 53% | 1029.7 hPa | - | - | - | - |
| 1777771732 | 10.56° C | 53% | 1029.8 hPa | - | - | - | - |
* Rain since midnight (hover to see other rain measurements)
** Current wind speed in m/s (hover to see current wind gust speed)